sensor_id;sensor_type;location;lat;lon;timestamp;temperature;humidity
19898;DHT22;10111;50.814;4.572;2023-04-02T00:11:40;9.90;99.90
19898;DHT22;10111;50.814;4.572;2023-04-02T00:16:44;10.20;99.90
19898;DHT22;10111;50.814;4.572;2023-04-02T00:19:24;10.30;99.90
19898;DHT22;10111;50.814;4.572;2023-04-02T00:21:53;10.20;99.90
19898;DHT22;10111;50.814;4.572;2023-04-02T00:24:20;9.90;99.90
19898;DHT22;10111;50.814;4.572;2023-04-02T00:26:51;9.90;99.90
19898;DHT22;10111;50.814;4.572;2023-04-02T00:29:18;9.90;99.90
19898;DHT22;10111;50.814;4.572;2023-04-02T00:31:54;9.90;99.90
19898;DHT22;10111;50.814;4.572;2023-04-02T00:34:29;9.90;99.90
19898;DHT22;10111;50.814;4.572;2023-04-02T00:36:56;10.10;99.90
19898;DHT22;10111;50.814;4.572;2023-04-02T00:39:24;9.90;99.90
19898;DHT22;10111;50.814;4.572;2023-04-02T00:41:53;9.90;99.90
19898;DHT22;10111;50.814;4.572;2023-04-02T00:44:33;9.80;99.90
19898;DHT22;10111;50.814;4.572;2023-04-02T00:47:09;9.90;99.90
19898;DHT22;10111;50.814;4.572;2023-04-02T00:49:39;9.70;99.90
19898;DHT22;10111;50.814;4.572;2023-04-02T00:52:08;9.70;99.90
19898;DHT22;10111;50.814;4.572;2023-04-02T00:54:49;9.80;99.90
19898;DHT22;10111;50.814;4.572;2023-04-02T00:57:24;9.60;99.90
19898;DHT22;10111;50.814;4.572;2023-04-02T00:59:55;9.70;99.90
19898;DHT22;10111;50.814;4.572;2023-04-02T01:02:26;9.50;99.90
19898;DHT22;10111;50.814;4.572;2023-04-02T01:10:54;9.20;99.90
19898;DHT22;10111;50.814;4.572;2023-04-02T01:13:35;9.30;99.90
19898;DHT22;10111;50.814;4.572;2023-04-02T01:22:03;9.40;99.90
19898;DHT22;10111;50.814;4.572;2023-04-02T01:24:33;9.50;99.90
19898;DHT22;10111;50.814;4.572;2023-04-02T01:27:20;9.50;99.90
19898;DHT22;10111;50.814;4.572;2023-04-02T01:29:53;9.50;99.90
19898;DHT22;10111;50.814;4.572;2023-04-02T01:32:22;9.40;99.90
19898;DHT22;10111;50.814;4.572;2023-04-02T01:34:49;9.50;99.90
19898;DHT22;10111;50.814;4.572;2023-04-02T01:45:33;9.20;99.90
19898;DHT22;10111;50.814;4.572;2023-04-02T01:48:03;9.20;99.90
19898;DHT22;10111;50.814;4.572;2023-04-02T01:50:34;9.00;99.90
19898;DHT22;10111;50.814;4.572;2023-04-02T01:53:06;9.00;99.90
19898;DHT22;10111;50.814;4.572;2023-04-02T01:58:03;8.90;99.90
19898;DHT22;10111;50.814;4.572;2023-04-02T02:00:29;8.80;99.90
19898;DHT22;10111;50.814;4.572;2023-04-02T02:02:58;8.80;99.90
19898;DHT22;10111;50.814;4.572;2023-04-02T02:05:26;8.70;99.90
19898;DHT22;10111;50.814;4.572;2023-04-02T02:07:54;8.80;99.90
19898;DHT22;10111;50.814;4.572;2023-04-02T02:10:32;8.80;99.90
19898;DHT22;10111;50.814;4.572;2023-04-02T02:12:58;8.70;99.90
19898;DHT22;10111;50.814;4.572;2023-04-02T02:15:25;8.60;99.90
19898;DHT22;10111;50.814;4.572;2023-04-02T02:17:58;8.60;99.90
19898;DHT22;10111;50.814;4.572;2023-04-02T02:20:27;8.60;99.90
19898;DHT22;10111;50.814;4.572;2023-04-02T02:22:53;8.60;99.90
19898;DHT22;10111;50.814;4.572;2023-04-02T02:25:21;8.50;99.90
19898;DHT22;10111;50.814;4.572;2023-04-02T02:28:12;8.40;99.90
19898;DHT22;10111;50.814;4.572;2023-04-02T02:31:05;8.50;99.90
19898;DHT22;10111;50.814;4.572;2023-04-02T02:33:45;8.60;99.90
19898;DHT22;10111;50.814;4.572;2023-04-02T02:41:40;8.60;99.90
19898;DHT22;10111;50.814;4.572;2023-04-02T02:44:35;8.30;99.90
19898;DHT22;10111;50.814;4.572;2023-04-02T02:47:10;8.30;99.90
19898;DHT22;10111;50.814;4.572;2023-04-02T02:49:41;8.50;99.90
19898;DHT22;10111;50.814;4.572;2023-04-02T02:54:35;8.40;99.90
19898;DHT22;10111;50.814;4.572;2023-04-02T02:57:06;8.50;99.90
19898;DHT22;10111;50.814;4.572;2023-04-02T02:59:33;8.50;99.90
19898;DHT22;10111;50.814;4.572;2023-04-02T03:02:00;8.60;99.90
19898;DHT22;10111;50.814;4.572;2023-04-02T03:04:27;8.50;99.90
19898;DHT22;10111;50.814;4.572;2023-04-02T03:06:56;8.40;99.90
19898;DHT22;10111;50.814;4.572;2023-04-02T03:09:40;8.40;99.90
19898;DHT22;10111;50.814;4.572;2023-04-02T03:12:37;8.40;99.90
19898;DHT22;10111;50.814;4.572;2023-04-02T03:15:22;8.40;99.90
19898;DHT22;10111;50.814;4.572;2023-04-02T03:18:01;8.00;99.90
19898;DHT22;10111;50.814;4.572;2023-04-02T03:23:26;8.10;99.90
19898;DHT22;10111;50.814;4.572;2023-04-02T03:25:58;8.10;99.90
19898;DHT22;10111;50.814;4.572;2023-04-02T03:28:29;7.90;99.90
19898;DHT22;10111;50.814;4.572;2023-04-02T03:31:03;8.00;99.90
19898;DHT22;10111;50.814;4.572;2023-04-02T03:33:37;7.90;99.90
19898;DHT22;10111;50.814;4.572;2023-04-02T03:36:21;7.90;99.90
19898;DHT22;10111;50.814;4.572;2023-04-02T03:44:57;7.90;99.90
19898;DHT22;10111;50.814;4.572;2023-04-02T03:47:39;7.90;99.90
19898;DHT22;10111;50.814;4.572;2023-04-02T03:52:37;7.80;99.90
19898;DHT22;10111;50.814;4.572;2023-04-02T03:55:14;8.00;99.90
19898;DHT22;10111;50.814;4.572;2023-04-02T04:00:43;7.80;99.90
19898;DHT22;10111;50.814;4.572;2023-04-02T04:03:26;8.00;99.90
19898;DHT22;10111;50.814;4.572;2023-04-02T04:06:04;7.70;99.90
19898;DHT22;10111;50.814;4.572;2023-04-02T04:08:36;7.80;99.90
19898;DHT22;10111;50.814;4.572;2023-04-02T04:11:15;7.90;99.90
19898;DHT22;10111;50.814;4.572;2023-04-02T04:14:02;7.80;99.90
19898;DHT22;10111;50.814;4.572;2023-04-02T04:16:38;8.00;99.90
19898;DHT22;10111;50.814;4.572;2023-04-02T04:24:47;7.90;99.90
19898;DHT22;10111;50.814;4.572;2023-04-02T04:27:29;7.70;99.90
19898;DHT22;10111;50.814;4.572;2023-04-02T04:30:12;7.60;99.90
19898;DHT22;10111;50.814;4.572;2023-04-02T04:32:48;7.50;99.90
19898;DHT22;10111;50.814;4.572;2023-04-02T04:35:42;7.60;99.90
19898;DHT22;10111;50.814;4.572;2023-04-02T04:38:20;7.70;99.90
19898;DHT22;10111;50.814;4.572;2023-04-02T04:40:55;7.70;99.90
19898;DHT22;10111;50.814;4.572;2023-04-02T04:43:51;7.80;99.90
19898;DHT22;10111;50.814;4.572;2023-04-02T04:46:32;7.80;99.90
19898;DHT22;10111;50.814;4.572;2023-04-02T04:54:04;7.50;99.90
19898;DHT22;10111;50.814;4.572;2023-04-02T04:56:30;7.40;99.90
19898;DHT22;10111;50.814;4.572;2023-04-02T04:59:01;7.50;99.90
19898;DHT22;10111;50.814;4.572;2023-04-02T05:07:15;7.60;99.90
19898;DHT22;10111;50.814;4.572;2023-04-02T05:09:43;7.40;99.90
19898;DHT22;10111;50.814;4.572;2023-04-02T05:15:17;7.80;99.90
19898;DHT22;10111;50.814;4.572;2023-04-02T05:20:36;7.80;99.90
19898;DHT22;10111;50.814;4.572;2023-04-02T05:23:22;8.00;99.90
19898;DHT22;10111;50.814;4.572;2023-04-02T05:26:15;7.90;99.90
19898;DHT22;10111;50.814;4.572;2023-04-02T05:28:46;7.80;99.90
19898;DHT22;10111;50.814;4.572;2023-04-02T05:31:24;7.80;99.90
19898;DHT22;10111;50.814;4.572;2023-04-02T05:33:53;7.70;99.90
19898;DHT22;10111;50.814;4.572;2023-04-02T05:36:24;7.60;99.90
19898;DHT22;10111;50.814;4.572;2023-04-02T05:38:52;7.80;99.90
19898;DHT22;10111;50.814;4.572;2023-04-02T05:41:25;7.80;99.90
19898;DHT22;10111;50.814;4.572;2023-04-02T05:44:17;7.70;99.90
19898;DHT22;10111;50.814;4.572;2023-04-02T05:49:43;7.50;99.90
19898;DHT22;10111;50.814;4.572;2023-04-02T05:52:11;7.50;99.90
19898;DHT22;10111;50.814;4.572;2023-04-02T05:54:47;7.20;99.90
19898;DHT22;10111;50.814;4.572;2023-04-02T05:57:35;7.40;99.90
19898;DHT22;10111;50.814;4.572;2023-04-02T06:00:06;7.60;99.90
19898;DHT22;10111;50.814;4.572;2023-04-02T06:02:56;7.50;99.90
19898;DHT22;10111;50.814;4.572;2023-04-02T06:05:34;7.70;99.90
19898;DHT22;10111;50.814;4.572;2023-04-02T06:08:05;7.60;99.90
19898;DHT22;10111;50.814;4.572;2023-04-02T06:10:35;7.60;99.90
19898;DHT22;10111;50.814;4.572;2023-04-02T06:13:06;7.60;99.90
19898;DHT22;10111;50.814;4.572;2023-04-02T06:15:34;7.40;99.90
19898;DHT22;10111;50.814;4.572;2023-04-02T06:18:19;7.50;99.90
19898;DHT22;10111;50.814;4.572;2023-04-02T06:20:47;7.60;99.90
19898;DHT22;10111;50.814;4.572;2023-04-02T06:23:23;7.50;99.90
19898;DHT22;10111;50.814;4.572;2023-04-02T06:26:13;7.50;99.90
19898;DHT22;10111;50.814;4.572;2023-04-02T06:28:45;7.40;99.90
19898;DHT22;10111;50.814;4.572;2023-04-02T06:33:54;7.50;99.90
19898;DHT22;10111;50.814;4.572;2023-04-02T06:36:25;7.50;99.90
19898;DHT22;10111;50.814;4.572;2023-04-02T06:38:54;7.30;99.90
19898;DHT22;10111;50.814;4.572;2023-04-02T06:41:23;7.30;99.90
19898;DHT22;10111;50.814;4.572;2023-04-02T06:44:09;7.30;99.90
19898;DHT22;10111;50.814;4.572;2023-04-02T06:46:44;7.20;99.90
19898;DHT22;10111;50.814;4.572;2023-04-02T06:49:22;7.20;99.90
19898;DHT22;10111;50.814;4.572;2023-04-02T06:51:52;7.00;99.90
19898;DHT22;10111;50.814;4.572;2023-04-02T06:54:19;7.10;99.90
19898;DHT22;10111;50.814;4.572;2023-04-02T06:56:49;7.10;99.90
19898;DHT22;10111;50.814;4.572;2023-04-02T06:59:16;7.00;99.90
19898;DHT22;10111;50.814;4.572;2023-04-02T07:01:47;7.10;99.90
19898;DHT22;10111;50.814;4.572;2023-04-02T07:04:14;7.10;99.90
19898;DHT22;10111;50.814;4.572;2023-04-02T07:06:40;7.00;99.90
19898;DHT22;10111;50.814;4.572;2023-04-02T07:09:05;7.30;99.90
19898;DHT22;10111;50.814;4.572;2023-04-02T07:11:32;7.30;99.90
19898;DHT22;10111;50.814;4.572;2023-04-02T07:13:58;7.20;99.90
19898;DHT22;10111;50.814;4.572;2023-04-02T07:16:25;7.20;99.90
19898;DHT22;10111;50.814;4.572;2023-04-02T07:18:51;7.10;99.90
19898;DHT22;10111;50.814;4.572;2023-04-02T07:21:17;7.10;99.90
19898;DHT22;10111;50.814;4.572;2023-04-02T07:23:43;7.00;99.90
19898;DHT22;10111;50.814;4.572;2023-04-02T07:26:13;7.00;99.90
19898;DHT22;10111;50.814;4.572;2023-04-02T07:28:39;7.00;99.90
19898;DHT22;10111;50.814;4.572;2023-04-02T07:33:39;6.70;99.90
19898;DHT22;10111;50.814;4.572;2023-04-02T07:36:06;6.70;99.90
19898;DHT22;10111;50.814;4.572;2023-04-02T07:38:31;6.70;99.90
19898;DHT22;10111;50.814;4.572;2023-04-02T07:40:57;6.80;99.90
19898;DHT22;10111;50.814;4.572;2023-04-02T07:43:28;6.80;99.90
19898;DHT22;10111;50.814;4.572;2023-04-02T07:45:54;6.80;99.90
19898;DHT22;10111;50.814;4.572;2023-04-02T07:48:20;6.90;99.90
19898;DHT22;10111;50.814;4.572;2023-04-02T07:50:45;7.10;99.90
19898;DHT22;10111;50.814;4.572;2023-04-02T07:55:52;6.90;99.90
19898;DHT22;10111;50.814;4.572;2023-04-02T07:58:17;6.80;99.90
19898;DHT22;10111;50.814;4.572;2023-04-02T08:00:43;6.80;99.90
19898;DHT22;10111;50.814;4.572;2023-04-02T08:03:11;6.90;99.90
19898;DHT22;10111;50.814;4.572;2023-04-02T08:05:37;6.90;99.90
19898;DHT22;10111;50.814;4.572;2023-04-02T08:08:03;6.70;99.90
19898;DHT22;10111;50.814;4.572;2023-04-02T08:10:28;6.60;99.90
19898;DHT22;10111;50.814;4.572;2023-04-02T08:12:54;6.80;99.90
19898;DHT22;10111;50.814;4.572;2023-04-02T08:15:19;6.80;99.90
19898;DHT22;10111;50.814;4.572;2023-04-02T08:17:45;6.80;99.90
19898;DHT22;10111;50.814;4.572;2023-04-02T08:20:17;6.80;99.90
19898;DHT22;10111;50.814;4.572;2023-04-02T08:22:44;6.80;99.90
19898;DHT22;10111;50.814;4.572;2023-04-02T08:25:10;6.90;99.90
19898;DHT22;10111;50.814;4.572;2023-04-02T08:27:36;6.70;99.90
19898;DHT22;10111;50.814;4.572;2023-04-02T08:30:03;6.90;99.90
19898;DHT22;10111;50.814;4.572;2023-04-02T08:32:29;6.90;99.90
19898;DHT22;10111;50.814;4.572;2023-04-02T08:34:55;6.80;99.90
19898;DHT22;10111;50.814;4.572;2023-04-02T08:37:20;6.90;99.90
19898;DHT22;10111;50.814;4.572;2023-04-02T08:39:46;6.90;99.90
19898;DHT22;10111;50.814;4.572;2023-04-02T08:47:48;7.20;99.90
19898;DHT22;10111;50.814;4.572;2023-04-02T08:50:39;7.10;99.90
19898;DHT22;10111;50.814;4.572;2023-04-02T08:53:33;7.20;99.90
19898;DHT22;10111;50.814;4.572;2023-04-02T08:56:38;7.40;99.90
19898;DHT22;10111;50.814;4.572;2023-04-02T08:58:59;7.50;99.90
19898;DHT22;10111;50.814;4.572;2023-04-02T09:01:32;7.40;99.90
19898;DHT22;10111;50.814;4.572;2023-04-02T09:04:03;7.50;99.90
19898;DHT22;10111;50.814;4.572;2023-04-02T09:06:30;7.40;99.90
19898;DHT22;10111;50.814;4.572;2023-04-02T09:08:56;7.00;99.90
19898;DHT22;10111;50.814;4.572;2023-04-02T09:11:43;7.10;99.90
19898;DHT22;10111;50.814;4.572;2023-04-02T09:14:16;7.00;99.90
19898;DHT22;10111;50.814;4.572;2023-04-02T09:16:43;6.70;99.90
19898;DHT22;10111;50.814;4.572;2023-04-02T09:19:40;6.70;99.90
19898;DHT22;10111;50.814;4.572;2023-04-02T09:22:34;6.70;99.90
19898;DHT22;10111;50.814;4.572;2023-04-02T09:25:02;6.90;99.90
19898;DHT22;10111;50.814;4.572;2023-04-02T09:27:34;7.00;99.90
19898;DHT22;10111;50.814;4.572;2023-04-02T09:35:23;6.90;99.90
19898;DHT22;10111;50.814;4.572;2023-04-02T09:38:20;6.90;99.90
19898;DHT22;10111;50.814;4.572;2023-04-02T09:41:06;6.80;99.90
19898;DHT22;10111;50.814;4.572;2023-04-02T09:43:42;6.90;99.90
19898;DHT22;10111;50.814;4.572;2023-04-02T09:46:21;6.90;99.90
19898;DHT22;10111;50.814;4.572;2023-04-02T09:48:58;6.90;99.90
19898;DHT22;10111;50.814;4.572;2023-04-02T09:51:29;6.70;99.90
19898;DHT22;10111;50.814;4.572;2023-04-02T09:56:34;7.00;99.90
19898;DHT22;10111;50.814;4.572;2023-04-02T09:59:17;6.90;99.90
19898;DHT22;10111;50.814;4.572;2023-04-02T10:07:04;7.00;99.90
19898;DHT22;10111;50.814;4.572;2023-04-02T10:09:35;7.10;99.90
19898;DHT22;10111;50.814;4.572;2023-04-02T10:12:05;7.20;99.90
19898;DHT22;10111;50.814;4.572;2023-04-02T10:14:37;7.20;99.90
19898;DHT22;10111;50.814;4.572;2023-04-02T10:20:07;7.10;99.90
19898;DHT22;10111;50.814;4.572;2023-04-02T10:22:42;7.20;99.90
19898;DHT22;10111;50.814;4.572;2023-04-02T10:25:16;7.00;99.90
19898;DHT22;10111;50.814;4.572;2023-04-02T10:30:49;7.30;99.90
19898;DHT22;10111;50.814;4.572;2023-04-02T10:33:36;7.20;99.90
19898;DHT22;10111;50.814;4.572;2023-04-02T10:36:09;7.00;99.90
19898;DHT22;10111;50.814;4.572;2023-04-02T10:39:01;7.00;99.90
19898;DHT22;10111;50.814;4.572;2023-04-02T10:47:12;7.20;99.90
19898;DHT22;10111;50.814;4.572;2023-04-02T10:52:06;7.40;99.90
19898;DHT22;10111;50.814;4.572;2023-04-02T10:54:42;7.30;99.90
19898;DHT22;10111;50.814;4.572;2023-04-02T10:57:38;7.30;99.90
19898;DHT22;10111;50.814;4.572;2023-04-02T11:00:14;7.20;99.90
19898;DHT22;10111;50.814;4.572;2023-04-02T11:05:48;7.10;99.90
19898;DHT22;10111;50.814;4.572;2023-04-02T11:14:13;7.10;99.90
19898;DHT22;10111;50.814;4.572;2023-04-02T11:16:40;7.30;99.90
19898;DHT22;10111;50.814;4.572;2023-04-02T11:29:48;7.60;99.90
19898;DHT22;10111;50.814;4.572;2023-04-02T11:39:56;7.60;99.90
19898;DHT22;10111;50.814;4.572;2023-04-02T11:42:26;7.70;99.90
19898;DHT22;10111;50.814;4.572;2023-04-02T11:44:54;7.70;99.90
19898;DHT22;10111;50.814;4.572;2023-04-02T11:47:24;7.70;99.90
19898;DHT22;10111;50.814;4.572;2023-04-02T11:52:55;7.70;99.90
19898;DHT22;10111;50.814;4.572;2023-04-02T11:55:29;7.60;99.90
19898;DHT22;10111;50.814;4.572;2023-04-02T12:06:06;7.40;99.90
19898;DHT22;10111;50.814;4.572;2023-04-02T12:11:41;7.60;99.90
19898;DHT22;10111;50.814;4.572;2023-04-02T12:16:55;7.80;99.90
19898;DHT22;10111;50.814;4.572;2023-04-02T12:19:22;8.10;99.90
19898;DHT22;10111;50.814;4.572;2023-04-02T12:21:50;7.80;99.90
19898;DHT22;10111;50.814;4.572;2023-04-02T12:24:20;7.90;99.90
19898;DHT22;10111;50.814;4.572;2023-04-02T12:26:47;7.70;99.90
19898;DHT22;10111;50.814;4.572;2023-04-02T12:31:43;7.70;99.90
19898;DHT22;10111;50.814;4.572;2023-04-02T12:34:14;7.80;99.90
19898;DHT22;10111;50.814;4.572;2023-04-02T12:36:54;7.70;99.90
19898;DHT22;10111;50.814;4.572;2023-04-02T12:39:20;7.90;99.90
19898;DHT22;10111;50.814;4.572;2023-04-02T12:41:47;7.90;99.90
19898;DHT22;10111;50.814;4.572;2023-04-02T12:44:15;8.00;99.90
19898;DHT22;10111;50.814;4.572;2023-04-02T12:46:41;7.80;99.90
19898;DHT22;10111;50.814;4.572;2023-04-02T12:52:03;8.00;99.90
19898;DHT22;10111;50.814;4.572;2023-04-02T12:54:43;7.60;99.90
19898;DHT22;10111;50.814;4.572;2023-04-02T12:59:45;7.70;99.90
19898;DHT22;10111;50.814;4.572;2023-04-02T13:02:19;7.70;99.90
19898;DHT22;10111;50.814;4.572;2023-04-02T13:04:50;7.70;99.90
19898;DHT22;10111;50.814;4.572;2023-04-02T13:07:19;7.70;99.90
19898;DHT22;10111;50.814;4.572;2023-04-02T13:09:51;7.80;99.90
19898;DHT22;10111;50.814;4.572;2023-04-02T13:12:36;7.80;99.90
19898;DHT22;10111;50.814;4.572;2023-04-02T13:15:07;7.80;99.90
19898;DHT22;10111;50.814;4.572;2023-04-02T13:17:44;7.60;99.90
19898;DHT22;10111;50.814;4.572;2023-04-02T13:20:34;7.50;99.90
19898;DHT22;10111;50.814;4.572;2023-04-02T13:23:21;7.60;99.90
19898;DHT22;10111;50.814;4.572;2023-04-02T13:25:48;7.60;99.90
19898;DHT22;10111;50.814;4.572;2023-04-02T13:28:14;7.70;99.90
19898;DHT22;10111;50.814;4.572;2023-04-02T13:30:40;7.80;99.90
19898;DHT22;10111;50.814;4.572;2023-04-02T13:33:06;7.70;99.90
19898;DHT22;10111;50.814;4.572;2023-04-02T13:35:32;7.70;99.90
19898;DHT22;10111;50.814;4.572;2023-04-02T13:37:58;7.90;99.90
19898;DHT22;10111;50.814;4.572;2023-04-02T13:40:23;8.00;99.90
19898;DHT22;10111;50.814;4.572;2023-04-02T13:42:49;8.00;99.90
19898;DHT22;10111;50.814;4.572;2023-04-02T13:45:27;8.00;99.90
19898;DHT22;10111;50.814;4.572;2023-04-02T13:47:53;7.90;99.90
19898;DHT22;10111;50.814;4.572;2023-04-02T13:50:22;8.00;99.90
19898;DHT22;10111;50.814;4.572;2023-04-02T13:52:50;7.90;99.90
19898;DHT22;10111;50.814;4.572;2023-04-02T13:55:18;7.90;99.90
19898;DHT22;10111;50.814;4.572;2023-04-02T13:57:45;7.80;99.90
19898;DHT22;10111;50.814;4.572;2023-04-02T14:00:11;7.80;99.90
19898;DHT22;10111;50.814;4.572;2023-04-02T14:02:44;7.90;99.90
19898;DHT22;10111;50.814;4.572;2023-04-02T14:08:06;8.00;99.90
19898;DHT22;10111;50.814;4.572;2023-04-02T14:16:24;8.10;99.90
19898;DHT22;10111;50.814;4.572;2023-04-02T14:30:05;8.00;99.90
19898;DHT22;10111;50.814;4.572;2023-04-02T14:35:36;8.00;99.90
19898;DHT22;10111;50.814;4.572;2023-04-02T14:40:56;8.10;99.90
19898;DHT22;10111;50.814;4.572;2023-04-02T14:46:05;7.90;99.90
19898;DHT22;10111;50.814;4.572;2023-04-02T14:48:48;7.90;99.90
19898;DHT22;10111;50.814;4.572;2023-04-02T14:51:43;8.00;99.90
19898;DHT22;10111;50.814;4.572;2023-04-02T14:59:22;7.90;99.90
19898;DHT22;10111;50.814;4.572;2023-04-02T15:01:57;7.90;99.90
19898;DHT22;10111;50.814;4.572;2023-04-02T15:04:43;7.70;99.90
19898;DHT22;10111;50.814;4.572;2023-04-02T15:07:23;7.80;99.90
19898;DHT22;10111;50.814;4.572;2023-04-02T15:10:45;7.90;99.90
19898;DHT22;10111;50.814;4.572;2023-04-02T15:12:44;7.90;99.90
19898;DHT22;10111;50.814;4.572;2023-04-02T15:15:16;7.70;99.90
19898;DHT22;10111;50.814;4.572;2023-04-02T15:17:43;7.60;99.90
19898;DHT22;10111;50.814;4.572;2023-04-02T15:20:14;7.80;99.90
19898;DHT22;10111;50.814;4.572;2023-04-02T15:23:04;7.70;99.90
19898;DHT22;10111;50.814;4.572;2023-04-02T15:28:34;7.50;99.90
19898;DHT22;10111;50.814;4.572;2023-04-02T15:31:05;7.40;99.90
19898;DHT22;10111;50.814;4.572;2023-04-02T15:44:37;7.80;99.90
19898;DHT22;10111;50.814;4.572;2023-04-02T15:58:22;7.70;99.90
19898;DHT22;10111;50.814;4.572;2023-04-02T16:01:30;7.80;99.90
19898;DHT22;10111;50.814;4.572;2023-04-02T16:04:09;8.00;99.90
19898;DHT22;10111;50.814;4.572;2023-04-02T16:09:40;8.00;99.90
19898;DHT22;10111;50.814;4.572;2023-04-02T16:12:16;7.70;99.90
19898;DHT22;10111;50.814;4.572;2023-04-02T16:14:45;7.60;99.90
19898;DHT22;10111;50.814;4.572;2023-04-02T16:17:18;7.60;99.90
19898;DHT22;10111;50.814;4.572;2023-04-02T16:19:55;7.60;99.90
19898;DHT22;10111;50.814;4.572;2023-04-02T16:22:27;7.80;99.90
19898;DHT22;10111;50.814;4.572;2023-04-02T16:25:00;7.70;99.90
19898;DHT22;10111;50.814;4.572;2023-04-02T16:27:33;7.60;99.90
19898;DHT22;10111;50.814;4.572;2023-04-02T16:30:28;7.60;99.90
19898;DHT22;10111;50.814;4.572;2023-04-02T16:33:13;7.70;99.90
19898;DHT22;10111;50.814;4.572;2023-04-02T16:35:52;7.80;99.90
19898;DHT22;10111;50.814;4.572;2023-04-02T16:41:13;7.60;99.90
19898;DHT22;10111;50.814;4.572;2023-04-02T16:54:52;7.70;99.90
19898;DHT22;10111;50.814;4.572;2023-04-02T17:00:41;8.00;99.90
19898;DHT22;10111;50.814;4.572;2023-04-02T17:06:07;8.00;99.90
19898;DHT22;10111;50.814;4.572;2023-04-02T17:08:49;8.10;99.90
19898;DHT22;10111;50.814;4.572;2023-04-02T17:11:24;7.90;99.90
19898;DHT22;10111;50.814;4.572;2023-04-02T17:14:05;8.00;99.90
19898;DHT22;10111;50.814;4.572;2023-04-02T17:16:36;8.10;99.90
19898;DHT22;10111;50.814;4.572;2023-04-02T17:19:10;8.00;99.90
19898;DHT22;10111;50.814;4.572;2023-04-02T17:21:36;8.20;99.90
19898;DHT22;10111;50.814;4.572;2023-04-02T17:26:49;8.20;99.90
19898;DHT22;10111;50.814;4.572;2023-04-02T17:29:42;8.10;99.90
19898;DHT22;10111;50.814;4.572;2023-04-02T17:32:25;8.10;99.90
19898;DHT22;10111;50.814;4.572;2023-04-02T17:34:51;8.20;99.90
19898;DHT22;10111;50.814;4.572;2023-04-02T17:37:47;8.20;99.90
19898;DHT22;10111;50.814;4.572;2023-04-02T17:43:29;8.00;99.90
19898;DHT22;10111;50.814;4.572;2023-04-02T17:46:08;7.90;99.90
19898;DHT22;10111;50.814;4.572;2023-04-02T17:48:46;7.90;99.90
19898;DHT22;10111;50.814;4.572;2023-04-02T18:05:36;7.80;99.90
19898;DHT22;10111;50.814;4.572;2023-04-02T18:11:09;7.70;99.90
19898;DHT22;10111;50.814;4.572;2023-04-02T18:21:59;7.40;99.90
19898;DHT22;10111;50.814;4.572;2023-04-02T18:24:57;7.20;99.90
19898;DHT22;10111;50.814;4.572;2023-04-02T18:27:41;7.00;99.90
19898;DHT22;10111;50.814;4.572;2023-04-02T18:30:27;7.00;99.90
19898;DHT22;10111;50.814;4.572;2023-04-02T18:35:47;6.90;99.90
19898;DHT22;10111;50.814;4.572;2023-04-02T18:38:20;6.90;99.90
19898;DHT22;10111;50.814;4.572;2023-04-02T18:41:01;6.60;99.90
19898;DHT22;10111;50.814;4.572;2023-04-02T18:48:59;6.30;99.90
19898;DHT22;10111;50.814;4.572;2023-04-02T18:51:28;6.20;99.90
19898;DHT22;10111;50.814;4.572;2023-04-02T18:54:33;6.10;99.90
19898;DHT22;10111;50.814;4.572;2023-04-02T18:57:24;6.10;99.90
19898;DHT22;10111;50.814;4.572;2023-04-02T19:02:43;6.00;99.90
19898;DHT22;10111;50.814;4.572;2023-04-02T19:05:22;6.00;99.90
19898;DHT22;10111;50.814;4.572;2023-04-02T19:07:50;6.00;99.90
19898;DHT22;10111;50.814;4.572;2023-04-02T19:10:40;6.00;99.90
19898;DHT22;10111;50.814;4.572;2023-04-02T19:13:13;6.00;99.90
19898;DHT22;10111;50.814;4.572;2023-04-02T19:18:48;6.00;99.90
19898;DHT22;10111;50.814;4.572;2023-04-02T19:38:54;5.80;99.90
19898;DHT22;10111;50.814;4.572;2023-04-02T19:44:01;5.90;99.90
19898;DHT22;10111;50.814;4.572;2023-04-02T19:46:27;6.00;99.90
19898;DHT22;10111;50.814;4.572;2023-04-02T19:49:05;6.00;99.90
19898;DHT22;10111;50.814;4.572;2023-04-02T19:51:32;6.00;99.90
19898;DHT22;10111;50.814;4.572;2023-04-02T19:53:59;5.90;99.90
19898;DHT22;10111;50.814;4.572;2023-04-02T19:56:25;5.80;99.90
19898;DHT22;10111;50.814;4.572;2023-04-02T19:58:52;5.80;99.90
19898;DHT22;10111;50.814;4.572;2023-04-02T20:01:18;5.90;99.90
19898;DHT22;10111;50.814;4.572;2023-04-02T20:03:44;5.90;99.90
19898;DHT22;10111;50.814;4.572;2023-04-02T20:06:09;5.80;99.90
19898;DHT22;10111;50.814;4.572;2023-04-02T20:08:35;5.70;99.90
19898;DHT22;10111;50.814;4.572;2023-04-02T20:11:01;5.70;99.90
19898;DHT22;10111;50.814;4.572;2023-04-02T20:13:27;5.70;99.90
19898;DHT22;10111;50.814;4.572;2023-04-02T20:15:57;5.70;99.90
19898;DHT22;10111;50.814;4.572;2023-04-02T20:18:22;5.80;99.90
19898;DHT22;10111;50.814;4.572;2023-04-02T20:20:48;5.80;99.90
19898;DHT22;10111;50.814;4.572;2023-04-02T20:23:15;5.80;99.90
19898;DHT22;10111;50.814;4.572;2023-04-02T20:25:45;5.90;99.90
19898;DHT22;10111;50.814;4.572;2023-04-02T20:28:11;5.90;99.90
19898;DHT22;10111;50.814;4.572;2023-04-02T20:30:37;5.80;99.90
19898;DHT22;10111;50.814;4.572;2023-04-02T20:33:03;5.80;99.90
19898;DHT22;10111;50.814;4.572;2023-04-02T20:35:29;5.80;99.90
19898;DHT22;10111;50.814;4.572;2023-04-02T20:37:59;5.80;99.90
19898;DHT22;10111;50.814;4.572;2023-04-02T20:40:24;5.60;99.90
19898;DHT22;10111;50.814;4.572;2023-04-02T20:42:50;5.60;99.90
19898;DHT22;10111;50.814;4.572;2023-04-02T20:45:17;5.50;99.90
19898;DHT22;10111;50.814;4.572;2023-04-02T20:47:43;5.40;99.90
19898;DHT22;10111;50.814;4.572;2023-04-02T20:50:09;5.30;99.90
19898;DHT22;10111;50.814;4.572;2023-04-02T20:52:35;5.30;99.90
19898;DHT22;10111;50.814;4.572;2023-04-02T20:55:00;5.40;99.90
19898;DHT22;10111;50.814;4.572;2023-04-02T20:57:28;5.40;99.90
19898;DHT22;10111;50.814;4.572;2023-04-02T20:59:54;5.30;99.90
19898;DHT22;10111;50.814;4.572;2023-04-02T21:02:20;5.40;99.90
19898;DHT22;10111;50.814;4.572;2023-04-02T21:04:46;5.30;99.90
19898;DHT22;10111;50.814;4.572;2023-04-02T21:07:12;5.40;99.90
19898;DHT22;10111;50.814;4.572;2023-04-02T21:09:37;5.60;99.90
19898;DHT22;10111;50.814;4.572;2023-04-02T21:12:03;5.90;99.90
19898;DHT22;10111;50.814;4.572;2023-04-02T21:14:29;6.00;99.90
19898;DHT22;10111;50.814;4.572;2023-04-02T21:17:00;6.10;99.90
19898;DHT22;10111;50.814;4.572;2023-04-02T21:19:25;6.30;99.90
19898;DHT22;10111;50.814;4.572;2023-04-02T21:21:53;6.30;99.90
19898;DHT22;10111;50.814;4.572;2023-04-02T21:24:19;6.40;99.90
19898;DHT22;10111;50.814;4.572;2023-04-02T21:26:45;6.40;99.90
19898;DHT22;10111;50.814;4.572;2023-04-02T21:29:11;6.30;99.90
19898;DHT22;10111;50.814;4.572;2023-04-02T21:31:38;6.10;99.90
19898;DHT22;10111;50.814;4.572;2023-04-02T21:34:05;5.90;99.90
19898;DHT22;10111;50.814;4.572;2023-04-02T21:36:33;5.70;99.90
19898;DHT22;10111;50.814;4.572;2023-04-02T21:39:03;5.80;99.90
19898;DHT22;10111;50.814;4.572;2023-04-02T21:41:34;5.90;99.90
19898;DHT22;10111;50.814;4.572;2023-04-02T21:44:01;5.90;99.90